Noemi — V7HY6 — position and weather

sailwx.info

Track history (hours):
 
Tides and Currents Weather Stations Pressure Air Temp Water Temp Dewpoint Dewpoint Depression Visibility Wind Speed Wind Dir Waves Ship Positions

Noemi

Last reported at 2017-Jun-27 03:29 UTC. Time now 2017-Jun-27 03:45 UTC.
Position N 37°42' E 007°47'.

Length 229 m; draft 8 m.

Type: Tanker. MMSI: 538002335.

Date/timePositionNaut miles runAvg speedWind from/ knotsBaromVisibWave heightAir tempDewpointWater temp
2017-Jun-27 03:29N 37°42' E 007°47'612.4
2017-Jun-27 03:00N 37°43' E 007°55'612.1
2017-Jun-27 02:30N 37°43' E 008°03'611.8
2017-Jun-27 02:01N 37°43' E 008°10'611.7
2017-Jun-27 01:30N 37°43' E 008°17'611.5
2017-Jun-27 00:58N 37°44' E 008°25'511.5
2017-Jun-27 00:30N 37°44' E 008°32'611.5
2017-Jun-27 00:00N 37°44' E 008°39'711.6
2017-Jun-26 23:22N 37°44' E 008°48'611.6
2017-Jun-26 22:51N 37°44' E 008°56'411.8
2017-Jun-26 22:29N 37°43' E 009°01'611.7
2017-Jun-26 22:00N 37°43' E 009°09'611.8
2017-Jun-26 21:29N 37°43' E 009°16'611.9
2017-Jun-26 21:00N 37°42' E 009°23'611.9
2017-Jun-26 20:29N 37°42' E 009°31'612.0
2017-Jun-26 20:00N 37°41' E 009°39'612.2
2017-Jun-26 19:30N 37°40' E 009°46'612.3
2017-Jun-26 19:00N 37°40' E 009°54'612.3
2017-Jun-26 18:30N 37°40' E 010°02'612.4
2017-Jun-26 18:00N 37°39' E 010°09'612.3
2017-Jun-26 17:31N 37°39' E 010°17'612.4
2017-Jun-26 17:00N 37°38' E 010°25'5112.3
2017-Jun-26 12:52N 37°21' E 011°25'512.5
2017-Jun-26 12:30N 37°18' E 011°30'612.5
2017-Jun-26 12:00N 37°15' E 011°37'612.5
2017-Jun-26 11:30N 37°12' E 011°44'612.6
2017-Jun-26 11:00N 37°08' E 011°51'612.5
2017-Jun-26 10:30N 37°05' E 011°57'612.1
2017-Jun-26 10:00N 37°02' E 012°04'611.7
2017-Jun-26 09:30N 36°59' E 012°10'612.0
2017-Jun-26 09:00N 36°57' E 012°17'612.2
2017-Jun-26 08:30N 36°55' E 012°24'611.8
2017-Jun-26 08:00N 36°53' E 012°31'612.1
2017-Jun-26 07:30N 36°51' E 012°38'612.3
2017-Jun-26 07:00N 36°48' E 012°45'612.5
2017-Jun-26 06:31N 36°46' E 012°53'612.8
2017-Jun-26 06:01N 36°44' E 013°00'612.8
2017-Jun-26 05:30N 36°42' E 013°08'612.9
2017-Jun-26 05:00N 36°40' E 013°15'612.6
2017-Jun-26 04:30N 36°38' E 013°23'612.4
2017-Jun-26 04:00N 36°36' E 013°30'612.2
2017-Jun-26 03:30N 36°33' E 013°37'612.1
2017-Jun-26 03:00N 36°30' E 013°44'612.1
2017-Jun-26 02:30N 36°28' E 013°50'612.0
2017-Jun-26 02:00N 36°26' E 013°58'612.0
2017-Jun-26 01:31N 36°24' E 014°05'612.0
2017-Jun-26 01:00N 36°22' E 014°12'612.0
2017-Jun-26 00:30N 36°20' E 014°19'612.1
2017-Jun-26 00:00N 36°18' E 014°26'612.1
2017-Jun-25 23:30N 36°16' E 014°33'612.1
2017-Jun-25 23:00N 36°14' E 014°40'612.0
2017-Jun-25 22:30N 36°12' E 014°47'612.0
2017-Jun-25 22:00N 36°10' E 014°54'611.7
2017-Jun-25 21:31N 36°08' E 015°01'611.6
2017-Jun-25 21:01N 36°06' E 015°07'611.7
2017-Jun-25 20:30N 36°05' E 015°14'611.8
2017-Jun-25 20:01N 36°03' E 015°21'611.9
2017-Jun-25 19:30N 36°01' E 015°29'612.0
2017-Jun-25 19:00N 35°60' E 015°36'612.0
2017-Jun-25 18:31N 35°58' E 015°43'612.0
2017-Jun-25 18:00N 35°56' E 015°50'612.1
2017-Jun-25 17:30N 35°55' E 015°57'612.0
2017-Jun-25 17:00N 35°53' E 016°04'2112.2
2017-Jun-25 15:16N 35°47' E 016°30'312.3
2017-Jun-25 15:00N 35°47' E 016°34'1312.4
2017-Jun-25 13:55N 35°43' E 016°49'512.3
2017-Jun-25 13:30N 35°41' E 016°55'612.3
2017-Jun-25 13:01N 35°40' E 017°02'612.2
2017-Jun-25 12:30N 35°38' E 017°10'612.3
2017-Jun-25 12:00N 35°36' E 017°17'612.4
2017-Jun-25 11:29N 35°34' E 017°25'612.5
2017-Jun-25 11:00N 35°33' E 017°32'612.6
2017-Jun-25 10:31N 35°31' E 017°39'1012.6
2017-Jun-25 09:43N 35°29' E 017°51'312.5
2017-Jun-25 09:31N 35°28' E 017°54'1612.4
2017-Jun-25 08:12N 35°23' E 018°13'212.4
2017-Jun-25 08:00N 35°23' E 018°16'612.4
2017-Jun-25 07:30N 35°21' E 018°24'612.3
2017-Jun-25 06:59N 35°19' E 018°31'612.4
2017-Jun-25 06:29N 35°17' E 018°38'612.4
2017-Jun-25 05:59N 35°15' E 018°45'1112.4
2017-Jun-25 05:05N 35°12' E 018°59'112.3
2017-Jun-25 05:01N 35°12' E 018°60'612.3
2017-Jun-25 04:31N 35°10' E 019°07'2612.4
2017-Jun-25 02:25N 35°03' E 019°37'612.3
2017-Jun-25 01:57N 35°02' E 019°44'1012.1
2017-Jun-25 01:09N 34°59' E 019°55'212.1
2017-Jun-25 00:58N 34°58' E 019°58'812.2
2017-Jun-25 00:18N 34°56' E 020°08'412.3
2017-Jun-25 00:00N 34°55' E 020°12'1312.5
2017-Jun-24 22:56N 34°52' E 020°28'812.6
2017-Jun-24 22:16N 34°49' E 020°37'312.7
2017-Jun-24 22:00N 34°48' E 020°41'612.7
2017-Jun-24 21:30N 34°47' E 020°49'812.6
2017-Jun-24 20:51N 34°44' E 020°58'412.5
2017-Jun-24 20:30N 34°43' E 021°03'4812.2
2017-Jun-24 16:33N 34°30' E 021°60'111.7
2017-Jun-24 16:30N 34°30' E 022°00'711.6
2017-Jun-24 15:52N 34°28' E 022°09'411.6
2017-Jun-24 15:29N 34°27' E 022°14'7411.8
2017-Jun-24 09:17N 34°06' E 023°40'4112.1
2017-Jun-24 05:54N 33°55' E 024°27'4912.6
2017-Jun-24 02:02N 33°42' E 025°23'112.9
2017-Jun-24 01:57N 33°41' E 025°24'34112.3
2017-Jun-22 22:08N 31°48' E 031°47'212.4
2017-Jun-22 22:00N 31°48' E 031°49'612.3
2017-Jun-22 21:30N 31°46' E 031°56'2512.0
2017-Jun-22 19:25N 31°30' E 032°18'7 8.1
2017-Jun-22 18:35N 31°26' E 032°24'  
Track history (hours):
 
Tides and Currents Weather Stations Pressure Air Temp Water Temp Dewpoint Dewpoint Depression Visibility Wind Speed Wind Dir Waves Ship Positions

Noemi

Last reported at 2017-Jun-27 03:29 UTC. Time now 2017-Jun-27 03:45 UTC.
Position N 37°42' E 007°47'.

Length 229 m; draft 8 m.

Type: Tanker. MMSI: 538002335.

Date/timePositionNaut miles runAvg speedWind from/ knotsBaromVisibWave heightAir tempDewpointWater temp
2017-Jun-27 03:29N 37°42' E 007°47'612.4
2017-Jun-27 03:00N 37°43' E 007°55'612.1
2017-Jun-27 02:30N 37°43' E 008°03'611.8
2017-Jun-27 02:01N 37°43' E 008°10'611.7
2017-Jun-27 01:30N 37°43' E 008°17'611.5
2017-Jun-27 00:58N 37°44' E 008°25'511.5
2017-Jun-27 00:30N 37°44' E 008°32'611.5
2017-Jun-27 00:00N 37°44' E 008°39'711.6
2017-Jun-26 23:22N 37°44' E 008°48'611.6
2017-Jun-26 22:51N 37°44' E 008°56'411.8
2017-Jun-26 22:29N 37°43' E 009°01'611.7
2017-Jun-26 22:00N 37°43' E 009°09'611.8
2017-Jun-26 21:29N 37°43' E 009°16'611.9
2017-Jun-26 21:00N 37°42' E 009°23'611.9
2017-Jun-26 20:29N 37°42' E 009°31'612.0
2017-Jun-26 20:00N 37°41' E 009°39'612.2
2017-Jun-26 19:30N 37°40' E 009°46'612.3
2017-Jun-26 19:00N 37°40' E 009°54'612.3
2017-Jun-26 18:30N 37°40' E 010°02'612.4
2017-Jun-26 18:00N 37°39' E 010°09'612.3
2017-Jun-26 17:31N 37°39' E 010°17'612.4
2017-Jun-26 17:00N 37°38' E 010°25'5112.3
2017-Jun-26 12:52N 37°21' E 011°25'512.5
2017-Jun-26 12:30N 37°18' E 011°30'612.5
2017-Jun-26 12:00N 37°15' E 011°37'612.5
2017-Jun-26 11:30N 37°12' E 011°44'612.6
2017-Jun-26 11:00N 37°08' E 011°51'612.5
2017-Jun-26 10:30N 37°05' E 011°57'612.1
2017-Jun-26 10:00N 37°02' E 012°04'611.7
2017-Jun-26 09:30N 36°59' E 012°10'612.0
2017-Jun-26 09:00N 36°57' E 012°17'612.2
2017-Jun-26 08:30N 36°55' E 012°24'611.8
2017-Jun-26 08:00N 36°53' E 012°31'612.1
2017-Jun-26 07:30N 36°51' E 012°38'612.3
2017-Jun-26 07:00N 36°48' E 012°45'612.5
2017-Jun-26 06:31N 36°46' E 012°53'612.8
2017-Jun-26 06:01N 36°44' E 013°00'612.8
2017-Jun-26 05:30N 36°42' E 013°08'612.9
2017-Jun-26 05:00N 36°40' E 013°15'612.6
2017-Jun-26 04:30N 36°38' E 013°23'612.4
2017-Jun-26 04:00N 36°36' E 013°30'612.2
2017-Jun-26 03:30N 36°33' E 013°37'612.1
2017-Jun-26 03:00N 36°30' E 013°44'612.1
2017-Jun-26 02:30N 36°28' E 013°50'612.0
2017-Jun-26 02:00N 36°26' E 013°58'612.0
2017-Jun-26 01:31N 36°24' E 014°05'612.0
2017-Jun-26 01:00N 36°22' E 014°12'612.0
2017-Jun-26 00:30N 36°20' E 014°19'612.1
2017-Jun-26 00:00N 36°18' E 014°26'612.1
2017-Jun-25 23:30N 36°16' E 014°33'612.1
2017-Jun-25 23:00N 36°14' E 014°40'612.0
2017-Jun-25 22:30N 36°12' E 014°47'612.0
2017-Jun-25 22:00N 36°10' E 014°54'611.7
2017-Jun-25 21:31N 36°08' E 015°01'611.6
2017-Jun-25 21:01N 36°06' E 015°07'611.7
2017-Jun-25 20:30N 36°05' E 015°14'611.8
2017-Jun-25 20:01N 36°03' E 015°21'611.9
2017-Jun-25 19:30N 36°01' E 015°29'612.0
2017-Jun-25 19:00N 35°60' E 015°36'612.0
2017-Jun-25 18:31N 35°58' E 015°43'612.0
2017-Jun-25 18:00N 35°56' E 015°50'612.1
2017-Jun-25 17:30N 35°55' E 015°57'612.0
2017-Jun-25 17:00N 35°53' E 016°04'2112.2
2017-Jun-25 15:16N 35°47' E 016°30'312.3
2017-Jun-25 15:00N 35°47' E 016°34'1312.4
2017-Jun-25 13:55N 35°43' E 016°49'512.3
2017-Jun-25 13:30N 35°41' E 016°55'612.3
2017-Jun-25 13:01N 35°40' E 017°02'612.2
2017-Jun-25 12:30N 35°38' E 017°10'612.3
2017-Jun-25 12:00N 35°36' E 017°17'612.4
2017-Jun-25 11:29N 35°34' E 017°25'612.5
2017-Jun-25 11:00N 35°33' E 017°32'612.6
2017-Jun-25 10:31N 35°31' E 017°39'1012.6
2017-Jun-25 09:43N 35°29' E 017°51'312.5
2017-Jun-25 09:31N 35°28' E 017°54'1612.4
2017-Jun-25 08:12N 35°23' E 018°13'212.4
2017-Jun-25 08:00N 35°23' E 018°16'612.4
2017-Jun-25 07:30N 35°21' E 018°24'612.3
2017-Jun-25 06:59N 35°19' E 018°31'612.4
2017-Jun-25 06:29N 35°17' E 018°38'612.4
2017-Jun-25 05:59N 35°15' E 018°45'1112.4
2017-Jun-25 05:05N 35°12' E 018°59'112.3
2017-Jun-25 05:01N 35°12' E 018°60'612.3
2017-Jun-25 04:31N 35°10' E 019°07'2612.4
2017-Jun-25 02:25N 35°03' E 019°37'612.3
2017-Jun-25 01:57N 35°02' E 019°44'1012.1
2017-Jun-25 01:09N 34°59' E 019°55'212.1
2017-Jun-25 00:58N 34°58' E 019°58'812.2
2017-Jun-25 00:18N 34°56' E 020°08'412.3
2017-Jun-25 00:00N 34°55' E 020°12'1312.5
2017-Jun-24 22:56N 34°52' E 020°28'812.6
2017-Jun-24 22:16N 34°49' E 020°37'312.7
2017-Jun-24 22:00N 34°48' E 020°41'612.7
2017-Jun-24 21:30N 34°47' E 020°49'812.6
2017-Jun-24 20:51N 34°44' E 020°58'412.5
2017-Jun-24 20:30N 34°43' E 021°03'4812.2
2017-Jun-24 16:33N 34°30' E 021°60'111.7
2017-Jun-24 16:30N 34°30' E 022°00'711.6
2017-Jun-24 15:52N 34°28' E 022°09'411.6
2017-Jun-24 15:29N 34°27' E 022°14'7411.8
2017-Jun-24 09:17N 34°06' E 023°40'4112.1
2017-Jun-24 05:54N 33°55' E 024°27'4912.6
2017-Jun-24 02:02N 33°42' E 025°23'112.9
2017-Jun-24 01:57N 33°41' E 025°24'34112.3
2017-Jun-22 22:08N 31°48' E 031°47'212.4
2017-Jun-22 22:00N 31°48' E 031°49'612.3
2017-Jun-22 21:30N 31°46' E 031°56'2512.0
2017-Jun-22 19:25N 31°30' E 032°18'7 8.1
2017-Jun-22 18:35N 31°26' E 032°24'  

Dump ship's entire track history